Great Falls, South Carolina
Current Conditions -  °F | °C
As of 4:15 PM on Saturday 22 Nov 2014 (Local Time) from KLKR Reporting Station
Clear Clear  
Wind Chill: 55°   Ceiling: Unl
Heat Index: 55°   Visibility: 10mi
Dew Point: 18°   Wind: 3mph
Humidity: 23%   Direction: 70°ENE
Pressure: 30.38"   Gusts: NA
Location:  34.58°N, 80.9°W
Report Text: KLKR 222115Z AUTO 07003KT 10SM CLR 13/M08 A3038 RMK AO2
Loading
Personal Weather Stations






























Interactive Weather Map New forecast layout! Learn more

10-Day Weather Forecast

Advertisements
Track Severe Weather on mobile